createdAt,value
2019-02-20T00:02:33.400Z,18.53
2019-02-20T00:07:28.008Z,20.63
2019-02-20T00:12:22.586Z,19.00
2019-02-20T00:17:17.179Z,18.70
2019-02-20T00:22:11.771Z,22.80
2019-02-20T00:27:06.333Z,19.97
2019-02-20T00:32:00.929Z,20.43
2019-02-20T00:36:55.507Z,19.47
2019-02-20T00:41:50.102Z,18.67
2019-02-20T00:46:46.342Z,17.83
2019-02-20T00:51:42.579Z,21.30
2019-02-20T00:56:37.150Z,23.43
2019-02-20T01:01:31.814Z,19.43
2019-02-20T01:06:26.387Z,20.23
2019-02-20T01:11:21.053Z,17.00
2019-02-20T01:16:15.663Z,16.93
2019-02-20T01:21:10.250Z,18.00
2019-02-20T01:26:04.818Z,24.73
2019-02-20T01:30:59.413Z,19.27
2019-02-20T01:35:53.985Z,16.07
2019-02-20T01:40:48.575Z,22.23
2019-02-20T01:45:43.147Z,16.03
2019-02-20T01:50:37.743Z,15.87
2019-02-20T01:55:32.325Z,15.70
2019-02-20T02:00:26.992Z,18.60
2019-02-20T02:05:21.562Z,19.53
2019-02-20T02:10:16.174Z,16.57
2019-02-20T02:15:20.064Z,18.43
2019-02-20T02:20:10.083Z,15.43
2019-02-20T02:25:05.956Z,20.07
2019-02-20T02:30:00.558Z,17.90
2019-02-20T02:34:55.138Z,14.37
2019-02-20T02:39:49.731Z,14.37
2019-02-20T02:44:44.312Z,15.20
2019-02-20T02:49:38.897Z,18.00
2019-02-20T02:54:33.476Z,16.20
2019-02-20T02:59:28.085Z,22.13
2019-02-20T03:04:22.739Z,20.93
2019-02-20T03:09:17.321Z,17.17
2019-02-20T03:14:11.894Z,17.80
2019-02-20T03:19:06.517Z,17.43
2019-02-20T03:24:01.081Z,17.40
2019-02-20T03:28:55.680Z,14.70
2019-02-20T03:33:50.335Z,16.23
2019-02-20T03:38:44.942Z,16.60
2019-02-20T03:43:39.513Z,12.83
2019-02-20T03:48:34.121Z,16.63
2019-02-20T03:53:28.703Z,18.33
2019-02-20T03:58:23.439Z,20.40
2019-02-20T04:03:18.012Z,19.03
2019-02-20T04:08:12.607Z,23.43
2019-02-20T04:13:07.196Z,20.47
2019-02-20T04:18:01.777Z,18.50
2019-02-20T04:22:56.339Z,19.30
2019-02-20T04:27:50.934Z,18.03
2019-02-20T04:32:45.503Z,16.07
2019-02-20T04:37:40.098Z,18.70
2019-02-20T04:42:34.678Z,21.33
2019-02-20T04:47:29.291Z,18.00
2019-02-20T04:52:23.935Z,17.83
2019-02-20T04:57:18.531Z,20.90
2019-02-20T05:02:13.105Z,16.17
2019-02-20T05:07:07.720Z,18.47
2019-02-20T05:12:02.285Z,18.07
2019-02-20T05:16:56.957Z,23.50
2019-02-20T05:21:51.525Z,21.67
2019-02-20T05:26:46.108Z,23.80
2019-02-20T05:31:40.680Z,21.90
2019-02-20T05:36:35.268Z,19.60
2019-02-20T05:41:29.871Z,21.03
2019-02-20T05:46:24.461Z,24.40
2019-02-20T05:51:19.036Z,25.10
2019-02-20T05:56:13.625Z,23.37
2019-02-20T06:01:08.297Z,23.47
2019-02-20T06:06:03.031Z,21.47
2019-02-20T06:11:00.500Z,26.17
2019-02-20T06:15:55.105Z,52.47
2019-02-20T06:20:49.686Z,35.47
2019-02-20T06:25:44.297Z,25.67
2019-02-20T06:30:38.990Z,22.93
2019-02-20T06:35:33.617Z,26.60
2019-02-20T06:40:28.197Z,22.43
2019-02-20T06:45:22.775Z,24.27
2019-02-20T06:50:17.462Z,26.17
2019-02-20T06:55:13.343Z,27.70
2019-02-20T07:00:12.200Z,23.60
2019-02-20T07:05:30.523Z,22.60
2019-02-20T07:10:38.292Z,31.30
2019-02-20T07:15:55.102Z,28.50
2019-02-20T07:21:15.149Z,22.87
2019-02-20T07:26:38.311Z,23.87
2019-02-20T07:31:32.951Z,23.83
2019-02-20T07:36:27.541Z,28.17
2019-02-20T07:41:22.139Z,22.67
2019-02-20T07:46:16.760Z,24.47
2019-02-20T07:51:11.360Z,24.43
2019-02-20T07:56:06.249Z,22.33
2019-02-20T08:01:00.851Z,26.17
2019-02-20T08:05:55.562Z,27.37
2019-02-20T08:10:50.159Z,27.40
2019-02-20T08:15:44.737Z,26.57
2019-02-20T08:20:39.595Z,29.53
2019-02-20T08:25:34.316Z,24.20
2019-02-20T08:30:29.154Z,25.53
2019-02-20T08:35:23.742Z,22.50
2019-02-20T08:40:20.347Z,24.27
2019-02-20T08:45:17.876Z,26.03
2019-02-20T08:50:14.106Z,26.43
2019-02-20T08:55:10.826Z,23.90
2019-02-20T09:00:12.564Z,26.43
2019-02-20T09:05:10.761Z,25.50
2019-02-20T09:10:09.875Z,25.43
2019-02-20T09:15:05.976Z,30.90
2019-02-20T09:20:00.727Z,29.80
2019-02-20T09:24:56.026Z,25.43
2019-02-20T09:29:58.355Z,30.53
2019-02-20T09:35:09.393Z,32.07
2019-02-20T09:40:16.077Z,31.80
2019-02-20T09:45:22.438Z,29.67
2019-02-20T09:50:17.031Z,29.60
2019-02-20T09:55:15.644Z,28.43
2019-02-20T10:00:17.027Z,33.07
2019-02-20T10:05:12.610Z,36.97
2019-02-20T10:10:11.247Z,34.53
2019-02-20T10:15:13.481Z,35.77
2019-02-20T10:20:10.949Z,31.63
2019-02-20T10:25:08.514Z,32.70
2019-02-20T10:30:18.949Z,34.33
2019-02-20T10:35:12.671Z,31.60
2019-02-20T10:40:10.247Z,33.60
2019-02-20T10:45:17.920Z,34.43
2019-02-20T10:50:14.650Z,32.03
2019-02-20T10:55:11.098Z,32.83
2019-02-20T11:00:23.488Z,32.43
2019-02-20T11:05:13.494Z,32.90
2019-02-20T11:10:09.704Z,29.40
2019-02-20T11:15:05.977Z,30.83
2019-02-20T11:20:06.553Z,29.93
2019-02-20T11:25:01.440Z,33.40
2019-02-20T11:29:56.041Z,33.53
2019-02-20T11:34:50.656Z,31.23
2019-02-20T11:39:45.269Z,30.77
2019-02-20T11:44:39.869Z,32.23
2019-02-20T11:49:41.072Z,30.67
2019-02-20T11:54:40.250Z,29.03
2019-02-20T11:59:35.128Z,31.23
2019-02-20T12:04:29.782Z,27.80
2019-02-20T12:09:24.451Z,29.70
2019-02-20T12:14:19.121Z,29.30
2019-02-20T12:19:13.866Z,25.17
2019-02-20T12:24:11.763Z,24.33
2019-02-20T12:29:08.089Z,26.53
2019-02-20T12:34:02.836Z,28.60
2019-02-20T12:38:57.440Z,26.37
2019-02-20T12:43:52.038Z,25.87
2019-02-20T12:48:47.466Z,22.70
2019-02-20T12:53:43.611Z,22.77
2019-02-20T12:58:39.338Z,28.27
2019-02-20T13:03:33.935Z,22.57
2019-02-20T13:08:28.735Z,23.60
2019-02-20T13:13:23.343Z,22.30
2019-02-20T13:18:17.992Z,24.23
2019-02-20T13:23:12.672Z,23.73
2019-02-20T13:28:07.385Z,24.10
2019-02-20T13:33:08.034Z,21.73
2019-02-20T13:38:02.810Z,40.37
2019-02-20T13:42:57.780Z,34.23
2019-02-20T13:47:53.071Z,31.90
2019-02-20T13:52:52.457Z,26.80
2019-02-20T13:57:44.406Z,26.83
2019-02-20T14:02:39.022Z,26.30
2019-02-20T14:07:33.627Z,31.93
2019-02-20T14:12:29.439Z,33.47
2019-02-20T14:17:26.734Z,36.73
2019-02-20T14:22:20.816Z,32.40
2019-02-20T14:27:17.251Z,30.60
2019-02-20T14:32:11.984Z,39.97
2019-02-20T14:37:06.693Z,39.17
2019-02-20T14:42:01.296Z,37.77
2019-02-20T14:46:56.099Z,35.80
2019-02-20T14:51:50.807Z,31.70
2019-02-20T14:56:45.512Z,37.40
2019-02-20T15:01:40.309Z,33.47
2019-02-20T15:06:35.194Z,35.63
2019-02-20T15:11:29.826Z,30.20
2019-02-20T15:16:24.456Z,38.27
2019-02-20T15:21:19.076Z,36.60
2019-02-20T15:26:14.443Z,31.87
2019-02-20T15:31:09.196Z,29.80
2019-02-20T15:36:03.868Z,29.20
2019-02-20T15:40:58.489Z,29.00
2019-02-20T15:45:53.112Z,33.13
2019-02-20T15:50:47.799Z,34.33
2019-02-20T15:55:42.401Z,33.00
2019-02-20T16:00:37.176Z,30.83
2019-02-20T16:05:33.068Z,32.77
2019-02-20T16:10:27.972Z,37.60
2019-02-20T16:15:24.240Z,38.37
2019-02-20T16:20:19.029Z,32.07
2019-02-20T16:25:16.167Z,37.07
2019-02-20T16:30:13.926Z,35.47
2019-02-20T16:35:11.033Z,37.60
2019-02-20T16:40:09.587Z,44.03
2019-02-20T16:45:05.001Z,42.67
2019-02-20T16:49:59.631Z,39.10
2019-02-20T16:54:55.098Z,41.97
2019-02-20T16:59:49.855Z,40.90
2019-02-20T17:04:44.452Z,45.87
2019-02-20T17:09:39.062Z,42.60
2019-02-20T17:14:33.837Z,41.27
2019-02-20T17:19:28.434Z,38.13
2019-02-20T17:24:23.037Z,50.03
2019-02-20T17:29:17.615Z,43.97
2019-02-20T17:34:12.198Z,48.07
2019-02-20T17:39:08.053Z,46.90
2019-02-20T17:44:02.626Z,46.90
2019-02-20T17:48:57.247Z,45.13
2019-02-20T17:53:51.819Z,43.20
2019-02-20T17:58:46.422Z,41.83
2019-02-20T18:03:41.181Z,38.83
2019-02-20T18:08:35.774Z,46.43
2019-02-20T18:13:30.345Z,46.10
2019-02-20T18:18:25.402Z,42.40
2019-02-20T18:23:19.975Z,41.20
2019-02-20T18:28:22.223Z,46.80
2019-02-20T18:33:10.894Z,45.33
2019-02-20T18:38:05.495Z,47.40
2019-02-20T18:43:00.111Z,49.47
2019-02-20T18:47:54.753Z,47.97
2019-02-20T18:52:49.332Z,52.13
2019-02-20T18:57:43.994Z,50.43
2019-02-20T19:02:38.584Z,57.27
2019-02-20T19:07:33.171Z,53.00
2019-02-20T19:12:35.344Z,51.17
2019-02-20T19:17:46.088Z,49.70
2019-02-20T19:23:09.434Z,46.87
2019-02-20T19:28:20.479Z,44.70
2019-02-20T19:33:51.273Z,45.67
2019-02-20T19:38:55.942Z,44.47
2019-02-20T19:44:23.538Z,50.03
2019-02-20T19:49:43.851Z,49.47
2019-02-20T19:54:45.827Z,50.60
2019-02-20T20:00:04.169Z,52.23
2019-02-20T20:05:36.378Z,47.83
2019-02-20T20:11:10.052Z,47.07
2019-02-20T20:16:31.512Z,50.10
2019-02-20T20:21:54.609Z,46.70
2019-02-20T20:27:17.688Z,53.70
2019-02-20T20:32:53.791Z,46.30
2019-02-20T20:38:10.240Z,51.30
2019-02-20T20:43:27.446Z,46.77
2019-02-20T20:48:43.021Z,47.23
2019-02-20T20:54:04.911Z,45.47
2019-02-20T20:59:21.885Z,51.30
2019-02-20T21:04:52.842Z,47.30
2019-02-20T21:09:57.653Z,47.33
2019-02-20T21:15:02.894Z,50.27
2019-02-20T21:20:29.579Z,48.97
2019-02-20T21:25:43.447Z,50.93
2019-02-20T21:31:17.232Z,54.27
2019-02-20T21:36:21.989Z,51.00
2019-02-20T21:41:26.971Z,48.13
2019-02-20T21:46:37.856Z,51.70
2019-02-20T21:51:45.457Z,51.60
2019-02-20T21:56:47.054Z,51.57
2019-02-20T22:01:58.232Z,52.43
2019-02-20T22:07:25.912Z,51.17
2019-02-20T22:13:07.418Z,50.03
2019-02-20T22:18:18.269Z,46.83
2019-02-20T22:23:29.433Z,49.63
2019-02-20T22:28:43.402Z,49.63
2019-02-20T22:34:05.117Z,48.07
2019-02-20T22:39:19.203Z,51.20
2019-02-20T22:44:49.890Z,48.00
2019-02-20T22:49:51.738Z,46.23
2019-02-20T22:55:05.259Z,50.53
2019-02-20T23:00:13.284Z,43.90
2019-02-20T23:05:43.859Z,49.57
2019-02-20T23:11:00.706Z,50.43
2019-02-20T23:15:55.285Z,54.70
2019-02-20T23:20:49.889Z,51.13
2019-02-20T23:25:44.468Z,55.07
2019-02-20T23:30:39.083Z,50.63
2019-02-20T23:35:33.655Z,52.50
2019-02-20T23:40:28.257Z,50.73
2019-02-20T23:45:22.908Z,47.53
2019-02-20T23:50:17.579Z,54.23
2019-02-20T23:55:12.227Z,46.17
